KBBB/BBB METAR and TAF weather

Enter ICAO airport designator
Station Type Date Time Source
KBBB METAR 2020/09/18 17:35 UTC NOAA

KBBB 181735Z AUTO 17009KT 145V205 10SM CLR 16/04 A3041 RMK AO2


Station Type Date Time Source
KBBB Decoded METAR 2020/09/18 17:35 UTC NOAA

Benson Municipal, MN, United States (KBBB) 45-19N 095-39W
Sep 18, 2020 - 01:35 PM EDT / 2020.09.18 1735 UTC
Wind: from the S (170 degrees) at 10 MPH (9 KT) (direction variable):0
Visibility: 10 mile(s):0
Sky conditions: clear
Temperature: 60 F (16 C)
Dew Point: 39 F (4 C)
Relative Humidity: 44%
Pressure (altimeter): 30.41 in. Hg (1029 hPa)
ob: KBBB 181735Z AUTO 17009KT 145V205 10SM CLR 16/04 A3041 RMK AO2
cycle: 17

Station Type Date Time Source
KBBB TAF UTC NOAA

Error!

Example: see airport list